createdAt,value
2022-11-06T00:00:00.311Z,88.72
2022-11-06T00:01:00.301Z,88.72
2022-11-06T00:02:00.351Z,89.07
2022-11-06T00:03:00.307Z,89.03
2022-11-06T00:04:00.274Z,88.92
2022-11-06T00:05:00.255Z,88.72
2022-11-06T00:06:00.251Z,88.82
2022-11-06T00:07:00.253Z,88.82
2022-11-06T00:08:00.251Z,88.96
2022-11-06T00:09:00.206Z,89.13
2022-11-06T00:10:00.191Z,89.03
2022-11-06T00:11:00.203Z,88.92
2022-11-06T00:12:00.172Z,89.07
2022-11-06T00:13:00.162Z,89.28
2022-11-06T00:14:00.161Z,89.38
2022-11-06T00:15:00.142Z,89.17
2022-11-06T00:16:00.151Z,89.28
2022-11-06T00:17:00.125Z,89.38
2022-11-06T00:18:00.113Z,89.28
2022-11-06T00:19:00.104Z,89.28
2022-11-06T00:20:00.102Z,89.34
2022-11-06T00:21:00.103Z,89.13
2022-11-06T00:22:00.091Z,89.17
2022-11-06T00:23:00.083Z,89.17
2022-11-06T00:24:00.060Z,89.48
2022-11-06T00:25:00.034Z,89.38
2022-11-06T00:26:00.034Z,89.38
2022-11-06T00:27:00.015Z,89.28
2022-11-06T00:28:00.014Z,89.17
2022-11-06T00:28:59.993Z,89.17
2022-11-06T00:29:59.998Z,89.28
2022-11-06T00:30:59.983Z,89.38
2022-11-06T00:31:59.964Z,89.28
2022-11-06T00:32:59.947Z,89.28
2022-11-06T00:33:59.935Z,89.28
2022-11-06T00:34:59.924Z,89.17
2022-11-06T00:35:59.925Z,89.17
2022-11-06T00:36:59.895Z,88.96
2022-11-06T00:37:59.895Z,89.07
2022-11-06T00:38:59.886Z,88.86
2022-11-06T00:39:59.873Z,88.86
2022-11-06T00:40:59.866Z,88.76
2022-11-06T00:41:59.856Z,88.96
2022-11-06T00:42:59.837Z,88.96
2022-11-06T00:43:59.857Z,89.11
2022-11-06T00:44:59.817Z,89.42
2022-11-06T00:45:59.816Z,89.52
2022-11-06T00:46:59.799Z,89.73
2022-11-06T00:47:59.791Z,89.67
2022-11-06T00:48:59.785Z,89.87
2022-11-06T00:49:59.770Z,89.97
2022-11-06T00:50:59.766Z,90.39
2022-11-06T00:51:59.739Z,90.90
2022-11-06T00:52:59.739Z,91.42
2022-11-06T00:53:59.729Z,91.52
2022-11-06T00:54:59.706Z,91.52
2022-11-06T00:55:59.717Z,91.87
2022-11-06T00:56:59.695Z,91.87
2022-11-06T00:57:59.678Z,91.66
2022-11-06T00:58:59.670Z,91.56
2022-11-06T00:59:59.677Z,91.46
2022-11-06T01:00:59.640Z,92.08
2022-11-06T01:01:59.776Z,91.97
2022-11-06T01:02:59.705Z,92.08
2022-11-06T01:03:59.611Z,92.22
2022-11-06T01:04:59.620Z,92.53
2022-11-06T01:05:59.602Z,92.63
2022-11-06T01:06:59.588Z,92.84
2022-11-06T01:07:59.579Z,92.84
2022-11-06T01:08:59.564Z,92.84
2022-11-06T01:09:59.571Z,92.74
2022-11-06T01:10:59.573Z,92.74
2022-11-06T01:12:15.046Z,92.84
2022-11-06T01:13:00.510Z,92.80
2022-11-06T01:13:59.542Z,92.80
2022-11-06T01:14:59.516Z,92.69
2022-11-06T01:15:59.523Z,92.38
2022-11-06T01:16:59.499Z,92.18
2022-11-06T01:17:59.462Z,92.08
2022-11-06T01:18:59.471Z,92.08
2022-11-06T01:19:59.552Z,92.18
2022-11-06T01:20:59.455Z,92.18
2022-11-06T01:21:59.442Z,92.29
2022-11-06T01:22:59.401Z,92.18
2022-11-06T01:23:59.405Z,92.08
2022-11-06T01:24:59.437Z,92.02
2022-11-06T01:25:59.397Z,91.81
2022-11-06T01:28:00.383Z,92.22
2022-11-06T01:28:59.384Z,92.63
2022-11-06T01:29:59.352Z,93.05
2022-11-06T01:30:59.321Z,93.15
2022-11-06T01:31:59.314Z,93.25
2022-11-06T01:32:59.318Z,93.56
2022-11-06T01:33:59.302Z,93.66
2022-11-06T01:34:59.387Z,93.56
2022-11-06T01:35:59.264Z,93.46
2022-11-06T01:36:59.272Z,93.25
2022-11-06T01:37:59.245Z,93.15
2022-11-06T01:38:59.253Z,93.15
2022-11-06T01:39:59.214Z,93.01
2022-11-06T01:40:59.213Z,92.84
2022-11-06T01:41:59.207Z,92.74
2022-11-06T01:42:59.214Z,92.63
2022-11-06T01:43:59.198Z,92.74
2022-11-06T01:44:59.179Z,92.63
2022-11-06T01:45:59.154Z,92.33
2022-11-06T01:46:59.165Z,92.33
2022-11-06T01:47:59.139Z,92.22
2022-11-06T01:48:59.135Z,92.22
2022-11-06T01:49:59.115Z,92.02
2022-11-06T01:50:59.115Z,91.97
2022-11-06T01:51:59.086Z,91.66
2022-11-06T01:52:59.086Z,91.46
2022-11-06T01:53:59.087Z,91.36
2022-11-06T01:54:59.068Z,91.36
2022-11-06T01:55:59.046Z,91.15
2022-11-06T01:56:59.049Z,91.25
2022-11-06T01:57:59.025Z,91.40
2022-11-06T01:58:59.046Z,91.50
2022-11-06T01:59:59.008Z,91.71
2022-11-06T02:00:58.996Z,91.66
2022-11-06T02:01:59.122Z,91.66
2022-11-06T02:02:59.172Z,91.56
2022-11-06T02:03:58.992Z,91.46
2022-11-06T02:04:58.977Z,91.36
2022-11-06T02:05:58.954Z,91.36
2022-11-06T02:06:58.936Z,91.36
2022-11-06T02:07:58.927Z,91.36
2022-11-06T02:08:58.917Z,91.15
2022-11-06T02:09:58.907Z,91.25
2022-11-06T02:10:58.896Z,91.15
2022-11-06T02:11:58.879Z,91.05
2022-11-06T02:12:58.875Z,90.94
2022-11-06T02:13:58.866Z,91.05
2022-11-06T02:14:58.876Z,90.80
2022-11-06T02:15:58.828Z,90.69
2022-11-06T02:16:58.840Z,90.53
2022-11-06T02:17:58.823Z,90.69
2022-11-06T02:18:58.817Z,90.59
2022-11-06T02:19:58.816Z,90.49
2022-11-06T02:20:58.789Z,90.49
2022-11-06T02:21:58.795Z,90.39
2022-11-06T02:22:58.769Z,90.28
2022-11-06T02:23:58.757Z,90.49
2022-11-06T02:24:58.749Z,90.39
2022-11-06T02:25:58.737Z,90.39
2022-11-06T02:26:58.724Z,90.18
2022-11-06T02:27:58.710Z,90.18
2022-11-06T02:28:58.699Z,90.18
2022-11-06T02:29:58.713Z,90.08
2022-11-06T02:30:58.677Z,90.08
2022-11-06T02:31:58.680Z,90.08
2022-11-06T02:32:58.659Z,89.97
2022-11-06T02:33:58.640Z,90.08
2022-11-06T02:34:58.730Z,89.97
2022-11-06T02:35:58.622Z,90.08
2022-11-06T02:36:58.613Z,90.08
2022-11-06T02:37:58.601Z,89.97
2022-11-06T02:38:58.593Z,90.08
2022-11-06T02:39:58.598Z,90.08
2022-11-06T02:40:58.569Z,90.08
2022-11-06T02:41:58.572Z,89.97
2022-11-06T02:42:58.540Z,89.97
2022-11-06T02:43:59.281Z,89.87
2022-11-06T02:44:58.550Z,89.97
2022-11-06T02:45:58.523Z,89.87
2022-11-06T02:46:58.504Z,89.87
2022-11-06T02:47:58.519Z,89.97
2022-11-06T02:48:58.503Z,90.08
2022-11-06T02:49:58.483Z,89.97
2022-11-06T02:50:58.462Z,90.08
2022-11-06T02:51:58.475Z,90.08
2022-11-06T02:52:58.453Z,89.87
2022-11-06T02:53:58.461Z,89.77
2022-11-06T02:54:58.422Z,89.67
2022-11-06T02:55:58.411Z,89.67
2022-11-06T02:56:58.404Z,89.77
2022-11-06T02:57:58.382Z,89.77
2022-11-06T02:58:58.372Z,89.77
2022-11-06T02:59:58.384Z,89.87
2022-11-06T03:00:58.343Z,89.97
2022-11-06T03:01:58.508Z,90.08
2022-11-06T03:02:58.483Z,90.08
2022-11-06T03:03:58.313Z,90.08
2022-11-06T03:04:58.324Z,90.18
2022-11-06T03:05:58.304Z,90.08
2022-11-06T03:06:58.283Z,90.18
2022-11-06T03:07:58.325Z,90.18
2022-11-06T03:08:58.412Z,90.08
2022-11-06T03:09:58.429Z,90.18
2022-11-06T03:10:58.333Z,90.18
2022-11-06T03:11:58.255Z,90.08
2022-11-06T03:12:58.331Z,90.28
2022-11-06T03:13:58.218Z,90.28
2022-11-06T03:14:58.236Z,90.18
2022-11-06T03:15:58.194Z,90.39
2022-11-06T03:16:58.184Z,90.28
2022-11-06T03:17:58.177Z,90.39
2022-11-06T03:18:58.173Z,90.53
2022-11-06T03:19:58.163Z,90.53
2022-11-06T03:20:58.136Z,90.64
2022-11-06T03:21:58.124Z,90.64
2022-11-06T03:22:58.113Z,90.64
2022-11-06T03:23:58.105Z,90.53
2022-11-06T03:24:58.106Z,90.64
2022-11-06T03:25:58.102Z,90.73
2022-11-06T03:26:58.076Z,90.84
2022-11-06T03:27:58.057Z,90.94
2022-11-06T03:28:58.047Z,91.05
2022-11-06T03:29:58.068Z,91.25
2022-11-06T03:30:58.037Z,91.46
2022-11-06T03:31:58.018Z,91.56
2022-11-06T03:32:58.017Z,91.66
2022-11-06T03:33:57.998Z,91.66
2022-11-06T03:34:57.998Z,91.56
2022-11-06T03:35:57.986Z,91.46
2022-11-06T03:36:57.986Z,91.36
2022-11-06T03:37:57.959Z,91.36
2022-11-06T03:38:57.938Z,91.46
2022-11-06T03:39:57.948Z,91.66
2022-11-06T03:40:57.923Z,91.56
2022-11-06T03:41:57.999Z,91.56
2022-11-06T03:42:57.890Z,91.77
2022-11-06T03:43:57.910Z,91.77
2022-11-06T03:44:57.958Z,91.66
2022-11-06T03:45:57.868Z,91.66
2022-11-06T03:46:57.856Z,91.66
2022-11-06T03:47:57.850Z,91.77
2022-11-06T03:48:57.842Z,91.77
2022-11-06T03:49:57.829Z,91.81
2022-11-06T03:50:57.810Z,91.87
2022-11-06T03:51:57.800Z,91.87
2022-11-06T03:52:57.789Z,91.77
2022-11-06T03:53:57.949Z,91.87
2022-11-06T03:54:57.788Z,91.56
2022-11-06T03:55:57.760Z,91.60
2022-11-06T03:56:57.750Z,91.71
2022-11-06T03:57:57.741Z,91.81
2022-11-06T03:58:57.838Z,91.91
2022-11-06T03:59:57.721Z,91.81
2022-11-06T04:00:57.700Z,91.91
2022-11-06T04:01:57.828Z,92.12
2022-11-06T04:02:57.849Z,92.33
2022-11-06T04:03:57.692Z,92.33
2022-11-06T04:04:57.666Z,92.43
2022-11-06T04:05:57.656Z,92.53
2022-11-06T04:06:57.644Z,92.38
2022-11-06T04:07:57.632Z,92.29
2022-11-06T04:08:57.633Z,92.12
2022-11-06T04:09:57.612Z,92.12
2022-11-06T04:10:57.651Z,92.08
2022-11-06T04:11:57.596Z,91.97
2022-11-06T04:12:57.574Z,91.66
2022-11-06T04:13:57.574Z,91.46
2022-11-06T04:14:57.557Z,91.25
2022-11-06T04:15:57.551Z,91.15
2022-11-06T04:16:57.535Z,90.94
2022-11-06T04:17:57.532Z,90.84
2022-11-06T04:18:57.515Z,90.64
2022-11-06T04:19:57.514Z,90.53
2022-11-06T04:20:57.486Z,90.43
2022-11-06T04:21:57.485Z,90.33
2022-11-06T04:22:57.468Z,90.33
2022-11-06T04:23:57.527Z,90.18
2022-11-06T04:24:57.443Z,90.33
2022-11-06T04:25:57.441Z,90.43
2022-11-06T04:26:57.426Z,90.39
2022-11-06T04:27:57.415Z,90.18
2022-11-06T04:28:57.418Z,90.08
2022-11-06T04:29:57.395Z,89.97
2022-11-06T04:30:57.376Z,90.08
2022-11-06T04:31:57.390Z,89.97
2022-11-06T04:33:00.319Z,90.18
2022-11-06T04:33:57.432Z,90.08
2022-11-06T04:34:57.359Z,90.08
2022-11-06T04:35:57.327Z,90.18
2022-11-06T04:36:57.326Z,90.18
2022-11-06T04:37:57.307Z,90.18
2022-11-06T04:38:57.315Z,90.28
2022-11-06T04:39:57.276Z,90.18
2022-11-06T04:40:57.291Z,90.18
2022-11-06T04:41:57.274Z,90.08
2022-11-06T04:42:57.257Z,89.97
2022-11-06T04:43:57.249Z,89.97
2022-11-06T04:44:57.240Z,90.08
2022-11-06T04:45:57.218Z,90.08
2022-11-06T04:46:57.217Z,90.08
2022-11-06T04:47:57.201Z,90.08
2022-11-06T04:48:57.199Z,89.97
2022-11-06T04:49:57.203Z,89.87
2022-11-06T04:50:57.176Z,89.87
2022-11-06T04:51:57.159Z,89.97
2022-11-06T04:52:57.150Z,89.97
2022-11-06T04:53:57.150Z,89.87
2022-11-06T04:54:57.127Z,89.87
2022-11-06T04:55:57.109Z,89.67
2022-11-06T04:56:57.110Z,89.77
2022-11-06T04:57:57.089Z,89.77
2022-11-06T04:58:57.099Z,89.77
2022-11-06T04:59:57.081Z,89.56
2022-11-06T05:00:57.112Z,89.56
2022-11-06T05:01:57.098Z,89.56
2022-11-06T05:02:57.061Z,89.77
2022-11-06T05:03:57.043Z,89.87
2022-11-06T05:04:57.018Z,89.77
2022-11-06T05:05:57.010Z,89.77
2022-11-06T05:06:56.998Z,89.67
2022-11-06T05:07:56.990Z,89.67
2022-11-06T05:08:56.992Z,89.67
2022-11-06T05:09:56.961Z,89.67
2022-11-06T05:10:56.961Z,89.77
2022-11-06T05:11:56.954Z,89.87
2022-11-06T05:12:56.931Z,89.97
2022-11-06T05:13:56.974Z,89.87
2022-11-06T05:14:57.076Z,89.87
2022-11-06T05:15:56.891Z,89.87
2022-11-06T05:16:56.902Z,89.77
2022-11-06T05:17:56.883Z,89.77
2022-11-06T05:18:56.871Z,89.77
2022-11-06T05:19:56.862Z,89.83
2022-11-06T05:20:56.874Z,89.87
2022-11-06T05:21:56.836Z,89.87
2022-11-06T05:22:56.831Z,89.97
2022-11-06T05:23:56.820Z,90.08
2022-11-06T05:24:56.803Z,90.08
2022-11-06T05:25:56.783Z,90.08
2022-11-06T05:26:59.536Z,90.03
2022-11-06T05:27:56.764Z,89.97
2022-11-06T05:28:56.773Z,90.18
2022-11-06T05:29:56.754Z,90.49
2022-11-06T05:30:56.734Z,90.59
2022-11-06T05:31:56.728Z,90.69
2022-11-06T05:32:56.714Z,90.90
2022-11-06T05:33:56.714Z,91.31
2022-11-06T05:34:56.703Z,91.62
2022-11-06T05:35:56.735Z,91.62
2022-11-06T05:36:56.697Z,91.66
2022-11-06T05:37:56.674Z,91.66
2022-11-06T05:38:56.664Z,91.56
2022-11-06T05:39:56.634Z,91.46
2022-11-06T05:40:56.635Z,91.46
2022-11-06T05:41:56.614Z,91.46
2022-11-06T05:42:56.615Z,91.56
2022-11-06T05:43:56.633Z,91.66
2022-11-06T05:44:56.597Z,91.56
2022-11-06T05:45:56.575Z,91.56
2022-11-06T05:46:56.584Z,91.66
2022-11-06T05:47:56.564Z,91.31
2022-11-06T05:48:56.589Z,91.42
2022-11-06T05:49:56.535Z,91.46
2022-11-06T05:50:56.525Z,91.56
2022-11-06T05:51:56.510Z,91.46
2022-11-06T05:52:56.524Z,91.66
2022-11-06T05:53:56.566Z,91.97
2022-11-06T05:54:56.477Z,91.97
2022-11-06T05:55:56.467Z,92.08
2022-11-06T05:56:56.458Z,92.08
2022-11-06T05:57:56.448Z,92.08
2022-11-06T05:58:56.459Z,92.08
2022-11-06T05:59:56.429Z,92.08
2022-11-06T06:00:56.415Z,92.18
2022-11-06T06:01:56.452Z,92.08
2022-11-06T06:02:56.492Z,92.38
2022-11-06T06:03:56.388Z,92.29
2022-11-06T06:04:56.380Z,92.29
2022-11-06T06:05:56.360Z,92.38
2022-11-06T06:06:56.348Z,92.49
2022-11-06T06:07:56.345Z,92.38
2022-11-06T06:08:56.349Z,92.38
2022-11-06T06:09:56.322Z,92.59
2022-11-06T06:10:56.310Z,92.59
2022-11-06T06:11:56.299Z,92.59
2022-11-06T06:12:56.289Z,92.80
2022-11-06T06:13:56.313Z,92.69
2022-11-06T06:14:56.270Z,92.69
2022-11-06T06:15:56.251Z,92.69
2022-11-06T06:16:56.267Z,92.59
2022-11-06T06:17:56.236Z,92.69
2022-11-06T06:18:56.249Z,92.69
2022-11-06T06:19:56.209Z,92.65
2022-11-06T06:20:56.201Z,92.55
2022-11-06T06:21:56.182Z,92.44
2022-11-06T06:22:56.184Z,92.34
2022-11-06T06:23:56.219Z,92.34
2022-11-06T06:24:56.201Z,92.14
2022-11-06T06:25:56.141Z,92.24
2022-11-06T06:26:56.143Z,92.10
2022-11-06T06:27:56.120Z,92.10
2022-11-06T06:28:56.142Z,91.89
2022-11-06T06:29:56.102Z,91.83
2022-11-06T06:31:01.217Z,91.93
2022-11-06T06:31:57.122Z,91.93
2022-11-06T06:32:56.074Z,91.99
2022-11-06T06:33:56.070Z,91.89
2022-11-06T06:34:56.086Z,91.89
2022-11-06T06:35:56.033Z,91.89
2022-11-06T06:36:56.040Z,91.58
2022-11-06T06:37:56.023Z,91.78
2022-11-06T06:38:56.042Z,91.78
2022-11-06T06:39:55.992Z,91.78
2022-11-06T06:40:55.984Z,91.58
2022-11-06T06:41:55.966Z,91.58
2022-11-06T06:42:55.963Z,91.68
2022-11-06T06:43:55.983Z,91.78
2022-11-06T06:44:55.943Z,91.68
2022-11-06T06:45:55.924Z,91.78
2022-11-06T06:46:55.926Z,91.99
2022-11-06T06:47:55.961Z,92.10
2022-11-06T06:48:55.905Z,91.99
2022-11-06T06:49:55.928Z,91.99
2022-11-06T06:50:55.885Z,91.99
2022-11-06T06:51:55.944Z,91.89
2022-11-06T06:52:55.860Z,91.78
2022-11-06T06:53:55.865Z,91.99
2022-11-06T06:54:55.835Z,92.10
2022-11-06T06:55:55.995Z,92.10
2022-11-06T06:56:55.807Z,91.99
2022-11-06T06:57:55.797Z,92.20
2022-11-06T06:58:55.808Z,92.30
2022-11-06T06:59:55.785Z,92.40
2022-11-06T07:00:55.838Z,92.40
2022-11-06T07:01:55.918Z,92.10
2022-11-06T07:02:55.747Z,92.10
2022-11-06T07:03:58.721Z,92.40
2022-11-06T07:04:56.719Z,92.61
2022-11-06T07:05:55.737Z,92.71
2022-11-06T07:06:55.701Z,92.71
2022-11-06T07:07:55.690Z,93.02
2022-11-06T07:08:55.701Z,93.02
2022-11-06T07:09:55.667Z,93.12
2022-11-06T07:10:55.659Z,93.02
2022-11-06T07:11:55.658Z,92.92
2022-11-06T07:12:55.637Z,93.02
2022-11-06T07:13:55.647Z,93.12
2022-11-06T07:14:55.618Z,93.02
2022-11-06T07:15:55.607Z,92.92
2022-11-06T07:16:55.589Z,92.87
2022-11-06T07:17:55.590Z,92.77
2022-11-06T07:18:55.588Z,92.77
2022-11-06T07:19:55.568Z,92.87
2022-11-06T07:20:55.558Z,92.77
2022-11-06T07:21:55.540Z,93.08
2022-11-06T07:22:55.529Z,93.18
2022-11-06T07:23:55.530Z,93.39
2022-11-06T07:24:55.501Z,93.29
2022-11-06T07:25:55.500Z,93.59
2022-11-06T07:26:55.489Z,93.70
2022-11-06T07:28:00.342Z,93.29
2022-11-06T07:28:56.470Z,93.04
2022-11-06T07:29:55.459Z,92.93
2022-11-06T07:30:55.458Z,92.83
2022-11-06T07:31:55.440Z,92.93
2022-11-06T07:32:55.420Z,92.93
2022-11-06T07:33:55.428Z,92.83
2022-11-06T07:34:55.410Z,92.93
2022-11-06T07:35:55.397Z,92.83
2022-11-06T07:36:55.386Z,92.73
2022-11-06T07:37:55.361Z,92.63
2022-11-06T07:38:55.411Z,92.73
2022-11-06T07:39:55.351Z,92.63
2022-11-06T07:40:55.342Z,92.63
2022-11-06T07:41:55.322Z,92.73
2022-11-06T07:42:55.311Z,92.73
2022-11-06T07:43:55.351Z,92.27
2022-11-06T07:44:55.294Z,92.38
2022-11-06T07:45:55.281Z,92.38
2022-11-06T07:46:55.283Z,92.48
2022-11-06T07:47:59.103Z,92.27
2022-11-06T07:48:55.258Z,92.27
2022-11-06T07:49:55.233Z,92.17
2022-11-06T07:50:55.234Z,92.17
2022-11-06T07:51:55.214Z,92.17
2022-11-06T07:52:55.214Z,92.07
2022-11-06T07:53:55.212Z,91.97
2022-11-06T07:54:55.188Z,91.66
2022-11-06T07:55:55.186Z,91.51
2022-11-06T07:56:55.165Z,91.51
2022-11-06T07:57:55.143Z,91.41
2022-11-06T07:58:55.157Z,91.31
2022-11-06T07:59:55.135Z,91.10
2022-11-06T08:00:55.191Z,90.80
2022-11-06T08:01:55.244Z,90.89
2022-11-06T08:02:55.104Z,90.80
2022-11-06T08:03:55.097Z,90.89
2022-11-06T08:04:55.084Z,91.10
2022-11-06T08:05:55.120Z,91.27
2022-11-06T08:06:55.056Z,90.85
2022-11-06T08:07:55.044Z,90.65
2022-11-06T08:08:58.867Z,90.65
2022-11-06T08:09:55.018Z,90.75
2022-11-06T08:10:55.020Z,90.85
2022-11-06T08:11:55.006Z,90.44
2022-11-06T08:12:54.988Z,90.44
2022-11-06T08:13:54.987Z,90.34
2022-11-06T08:14:55.027Z,90.34
2022-11-06T08:15:54.968Z,90.44
2022-11-06T08:16:54.958Z,90.44
2022-11-06T08:17:54.938Z,90.44
2022-11-06T08:18:54.973Z,90.34
2022-11-06T08:19:54.908Z,90.34
2022-11-06T08:20:54.898Z,90.24
2022-11-06T08:21:54.888Z,90.03
2022-11-06T08:22:54.905Z,90.03
2022-11-06T08:23:54.888Z,90.03
2022-11-06T08:24:54.858Z,90.03
2022-11-06T08:25:54.852Z,89.48
2022-11-06T08:26:54.941Z,89.58
2022-11-06T08:27:54.829Z,89.37
2022-11-06T08:28:54.851Z,89.07
2022-11-06T08:29:54.799Z,89.27
2022-11-06T08:30:54.799Z,89.17
2022-11-06T08:31:54.780Z,88.96
2022-11-06T08:32:54.772Z,89.27
2022-11-06T08:33:54.772Z,89.07
2022-11-06T08:34:54.868Z,88.76
2022-11-06T08:35:54.742Z,88.31
2022-11-06T08:36:54.731Z,88.00
2022-11-06T08:37:54.711Z,88.10
2022-11-06T08:38:54.731Z,87.90
2022-11-06T08:39:54.693Z,88.21
2022-11-06T08:40:54.694Z,88.00
2022-11-06T08:41:54.671Z,87.70
2022-11-06T08:42:54.742Z,87.59
2022-11-06T08:43:54.672Z,87.38
2022-11-06T08:44:54.664Z,87.18
2022-11-06T08:45:54.629Z,87.59
2022-11-06T08:46:54.622Z,86.83
2022-11-06T08:47:54.614Z,86.73
2022-11-06T08:48:54.662Z,87.14
2022-11-06T08:49:54.585Z,87.04
2022-11-06T08:50:54.667Z,86.11
2022-11-06T08:51:54.565Z,85.87
2022-11-06T08:52:54.560Z,86.32
2022-11-06T08:53:54.818Z,86.73
2022-11-06T08:54:54.534Z,86.58
2022-11-06T08:55:54.524Z,86.73
2022-11-06T08:56:54.566Z,86.73
2022-11-06T08:57:54.501Z,86.63
2022-11-06T08:58:55.889Z,86.58
2022-11-06T08:59:54.487Z,86.69
2022-11-06T09:00:54.540Z,86.48
2022-11-06T09:01:54.615Z,85.56
2022-11-06T09:02:54.445Z,85.25
2022-11-06T09:03:54.443Z,85.05
2022-11-06T09:04:54.452Z,84.50
2022-11-06T09:05:54.417Z,84.19
2022-11-06T09:06:54.465Z,84.64
2022-11-06T09:07:54.386Z,85.05
2022-11-06T09:08:54.449Z,84.80
2022-11-06T09:09:54.367Z,85.11
2022-11-06T09:10:58.318Z,85.05
2022-11-06T09:11:54.350Z,85.05
2022-11-06T09:12:54.382Z,84.64
2022-11-06T09:13:54.449Z,84.29
2022-11-06T09:14:55.168Z,84.09
2022-11-06T09:15:54.308Z,83.98
2022-11-06T09:16:54.299Z,83.95
2022-11-06T09:17:54.299Z,84.29
2022-11-06T09:18:54.341Z,84.39
2022-11-06T09:19:54.275Z,84.39
2022-11-06T09:20:54.269Z,84.50
2022-11-06T09:21:55.036Z,84.09
2022-11-06T09:22:54.250Z,83.95
2022-11-06T09:23:54.234Z,83.84
2022-11-06T09:25:09.248Z,83.13
2022-11-06T09:25:55.203Z,83.03
2022-11-06T09:26:54.192Z,82.89
2022-11-06T09:27:58.802Z,82.89
2022-11-06T09:28:55.189Z,82.48
2022-11-06T09:29:54.161Z,82.37
2022-11-06T09:30:54.152Z,82.78
2022-11-06T09:31:54.144Z,83.09
2022-11-06T09:32:54.129Z,82.98
2022-11-06T09:33:54.103Z,82.48
2022-11-06T09:34:54.121Z,82.68
2022-11-06T09:35:54.092Z,82.37
2022-11-06T09:36:54.252Z,82.27
2022-11-06T09:37:54.072Z,82.27
2022-11-06T09:38:54.075Z,82.48
2022-11-06T09:39:54.043Z,82.37
2022-11-06T09:40:54.048Z,82.57
2022-11-06T09:41:54.031Z,82.57
2022-11-06T09:42:54.014Z,82.37
2022-11-06T09:44:09.483Z,81.86
2022-11-06T09:44:55.005Z,81.65
2022-11-06T09:45:55.047Z,82.03
2022-11-06T09:46:54.088Z,81.51
2022-11-06T09:47:53.976Z,81.72
2022-11-06T09:48:53.986Z,81.58
2022-11-06T09:49:53.960Z,80.87
2022-11-06T09:50:53.947Z,80.56
2022-11-06T09:51:53.934Z,80.42
2022-11-06T09:52:53.926Z,79.70
2022-11-06T09:53:53.920Z,79.50
2022-11-06T09:54:57.490Z,79.46
2022-11-06T09:55:54.887Z,79.05
2022-11-06T09:56:53.877Z,78.88
2022-11-06T09:57:53.857Z,79.19
2022-11-06T09:58:53.849Z,79.50
2022-11-06T09:59:53.830Z,79.05
2022-11-06T10:00:53.914Z,78.44
2022-11-06T10:01:53.927Z,78.23
2022-11-06T10:02:53.904Z,78.00
2022-11-06T10:03:53.798Z,77.79
2022-11-06T10:04:53.790Z,77.38
2022-11-06T10:05:53.760Z,77.69
2022-11-06T10:06:53.766Z,77.48
2022-11-06T10:07:53.748Z,77.28
2022-11-06T10:08:53.891Z,77.48
2022-11-06T10:09:53.720Z,77.62
2022-11-06T10:10:53.711Z,77.83
2022-11-06T10:11:53.703Z,78.23
2022-11-06T10:12:53.720Z,78.23
2022-11-06T10:13:53.692Z,78.13
2022-11-06T10:14:53.683Z,78.23
2022-11-06T10:15:53.655Z,77.93
2022-11-06T10:16:53.733Z,77.93
2022-11-06T10:17:53.653Z,77.72
2022-11-06T10:18:53.820Z,77.69
2022-11-06T10:19:53.634Z,77.89
2022-11-06T10:20:53.704Z,77.89
2022-11-06T10:21:53.645Z,77.79
2022-11-06T10:22:53.587Z,77.62
2022-11-06T10:23:53.587Z,78.34
2022-11-06T10:24:53.643Z,78.13
2022-11-06T10:25:53.546Z,78.54
2022-11-06T10:26:53.553Z,78.85
2022-11-06T10:27:53.550Z,78.58
2022-11-06T10:28:53.548Z,79.39
2022-11-06T10:29:53.566Z,78.78
2022-11-06T10:30:53.495Z,78.82
2022-11-06T10:31:53.490Z,79.13
2022-11-06T10:32:53.529Z,79.33
2022-11-06T10:33:53.460Z,79.53
2022-11-06T10:34:53.459Z,80.15
2022-11-06T10:35:53.449Z,80.05
2022-11-06T10:36:53.429Z,79.74
2022-11-06T10:37:53.420Z,79.64
2022-11-06T10:38:53.413Z,79.64
2022-11-06T10:39:53.400Z,79.53
2022-11-06T10:40:53.451Z,79.84
2022-11-06T10:41:53.380Z,79.23
2022-11-06T10:42:53.361Z,79.94
2022-11-06T10:43:53.368Z,79.23
2022-11-06T10:44:53.345Z,79.23
2022-11-06T10:45:53.332Z,79.33
2022-11-06T10:46:53.315Z,79.53
2022-11-06T10:47:53.313Z,79.53
2022-11-06T10:48:53.323Z,79.57
2022-11-06T10:49:53.292Z,80.15
2022-11-06T10:50:53.284Z,79.94
2022-11-06T10:51:53.264Z,79.84
2022-11-06T10:52:53.254Z,79.94
2022-11-06T10:53:53.273Z,79.64
2022-11-06T10:54:53.236Z,79.94
2022-11-06T10:55:53.232Z,79.74
2022-11-06T10:56:53.239Z,79.64
2022-11-06T10:57:53.204Z,79.33
2022-11-06T10:58:53.337Z,79.37
2022-11-06T10:59:53.186Z,79.02
2022-11-06T11:00:53.234Z,79.43
2022-11-06T11:01:53.252Z,79.64
2022-11-06T11:02:53.146Z,79.13
2022-11-06T11:03:53.147Z,79.13
2022-11-06T11:04:57.669Z,79.37
2022-11-06T11:05:54.108Z,79.33
2022-11-06T11:06:53.239Z,79.64
2022-11-06T11:07:53.089Z,79.33
2022-11-06T11:08:53.101Z,79.43
2022-11-06T11:09:53.060Z,79.53
2022-11-06T11:11:04.493Z,79.53
2022-11-06T11:11:54.039Z,79.74
2022-11-06T11:12:53.140Z,79.53
2022-11-06T11:13:53.039Z,79.33
2022-11-06T11:14:53.021Z,79.53
2022-11-06T11:15:53.011Z,80.35
2022-11-06T11:16:53.720Z,79.91
2022-11-06T11:17:52.979Z,79.39
2022-11-06T11:18:52.979Z,79.29
2022-11-06T11:19:52.952Z,79.39
2022-11-06T11:20:53.153Z,79.19
2022-11-06T11:21:52.932Z,78.48
2022-11-06T11:22:52.959Z,78.58
2022-11-06T11:23:52.932Z,78.99
2022-11-06T11:24:52.902Z,79.09
2022-11-06T11:25:52.884Z,78.99
2022-11-06T11:26:52.884Z,78.88
2022-11-06T11:27:52.864Z,78.78
2022-11-06T11:28:52.905Z,79.39
2022-11-06T11:29:52.844Z,78.88
2022-11-06T11:30:52.833Z,78.78
2022-11-06T11:31:52.825Z,78.48
2022-11-06T11:32:52.813Z,78.17
2022-11-06T11:33:52.838Z,78.07
2022-11-06T11:34:56.645Z,77.86
2022-11-06T11:35:52.776Z,77.76
2022-11-06T11:36:52.865Z,77.56
2022-11-06T11:37:52.757Z,77.76
2022-11-06T11:38:52.755Z,77.86
2022-11-06T11:39:52.736Z,78.03
2022-11-06T11:40:52.727Z,77.66
2022-11-06T11:41:52.828Z,77.83
2022-11-06T11:42:52.697Z,77.83
2022-11-06T11:43:52.706Z,78.13
2022-11-06T11:44:52.818Z,77.52
2022-11-06T11:45:52.659Z,77.31
2022-11-06T11:46:52.659Z,77.42
2022-11-06T11:47:52.759Z,77.11
2022-11-06T11:48:52.641Z,76.50
2022-11-06T11:49:52.629Z,76.16
2022-11-06T11:50:52.609Z,76.12
2022-11-06T11:51:52.597Z,76.02
2022-11-06T11:52:52.593Z,75.20
2022-11-06T11:53:52.604Z,74.66
2022-11-06T11:54:52.560Z,74.66
2022-11-06T11:55:52.551Z,74.42
2022-11-06T11:57:08.032Z,74.01
2022-11-06T11:57:53.533Z,73.81
2022-11-06T11:58:52.541Z,73.40
2022-11-06T11:59:52.511Z,73.91
2022-11-06T12:00:52.712Z,73.19
2022-11-06T12:01:52.702Z,72.75
2022-11-06T12:02:52.534Z,71.91
2022-11-06T12:03:52.635Z,71.56
2022-11-06T12:04:52.454Z,70.34
2022-11-06T12:05:52.450Z,69.60
2022-11-06T12:06:52.465Z,69.90
2022-11-06T12:07:52.594Z,69.77
2022-11-06T12:08:52.474Z,69.36
2022-11-06T12:09:52.421Z,68.44
2022-11-06T12:10:52.413Z,68.32
2022-11-06T12:11:52.385Z,68.01
2022-11-06T12:12:52.396Z,67.60
2022-11-06T12:13:52.357Z,67.60
2022-11-06T12:14:52.367Z,67.60
2022-11-06T12:15:52.336Z,67.94
2022-11-06T12:16:52.368Z,68.07
2022-11-06T12:17:52.321Z,69.23
2022-11-06T12:18:57.623Z,70.45
2022-11-06T12:19:53.309Z,69.84
2022-11-06T12:20:52.292Z,69.63
2022-11-06T12:21:52.320Z,70.04
2022-11-06T12:22:52.271Z,69.29
2022-11-06T12:23:52.251Z,67.74
2022-11-06T12:24:52.260Z,68.01
2022-11-06T12:25:52.240Z,67.50
2022-11-06T12:26:52.352Z,66.86
2022-11-06T12:27:52.202Z,66.35
2022-11-06T12:28:52.283Z,65.84
2022-11-06T12:29:52.200Z,66.22
2022-11-06T12:30:52.182Z,65.71
2022-11-06T12:31:52.169Z,65.58
2022-11-06T12:32:52.154Z,65.58
2022-11-06T12:34:09.871Z,64.64
2022-11-06T12:34:53.166Z,64.03
2022-11-06T12:35:52.130Z,63.82
2022-11-06T12:36:52.115Z,63.62
2022-11-06T12:37:52.099Z,63.92
2022-11-06T12:38:52.141Z,63.45
2022-11-06T12:39:52.087Z,63.95
2022-11-06T12:40:52.077Z,64.26
2022-11-06T12:41:52.057Z,64.93
2022-11-06T12:42:52.050Z,65.64
2022-11-06T12:43:52.050Z,65.44
2022-11-06T12:44:52.032Z,65.36
2022-11-06T12:45:52.011Z,66.11
2022-11-06T12:46:52.015Z,66.72
2022-11-06T12:47:52.000Z,66.85
2022-11-06T12:48:52.043Z,66.85
2022-11-06T12:49:51.981Z,67.49
2022-11-06T12:50:51.967Z,67.77
2022-11-06T12:51:52.006Z,67.60
2022-11-06T12:52:51.942Z,67.49